sensor_id;sensor_type;location;lat;lon;timestamp;P1;durP1;ratioP1;P2;durP2;ratioP2
23782;SDS011;12071;50.850;4.446;2022-11-18T00:00:12;4.90;;;1.70;;
23782;SDS011;12071;50.850;4.446;2022-11-18T00:02:37;7.25;;;1.90;;
23782;SDS011;12071;50.850;4.446;2022-11-18T00:05:03;9.23;;;2.00;;
23782;SDS011;12071;50.850;4.446;2022-11-18T00:07:29;5.00;;;1.60;;
23782;SDS011;12071;50.850;4.446;2022-11-18T00:09:54;3.42;;;1.52;;
23782;SDS011;12071;50.850;4.446;2022-11-18T00:12:20;3.50;;;2.08;;
23782;SDS011;12071;50.850;4.446;2022-11-18T00:15:04;5.60;;;2.05;;
23782;SDS011;12071;50.850;4.446;2022-11-18T00:17:31;4.45;;;1.67;;
23782;SDS011;12071;50.850;4.446;2022-11-18T00:19:56;7.03;;;1.88;;
23782;SDS011;12071;50.850;4.446;2022-11-18T00:22:22;6.05;;;1.70;;
23782;SDS011;12071;50.850;4.446;2022-11-18T00:24:47;6.90;;;1.90;;
23782;SDS011;12071;50.850;4.446;2022-11-18T00:27:13;4.53;;;2.08;;
23782;SDS011;12071;50.850;4.446;2022-11-18T00:29:39;6.95;;;1.83;;
23782;SDS011;12071;50.850;4.446;2022-11-18T00:32:04;7.40;;;2.05;;
23782;SDS011;12071;50.850;4.446;2022-11-18T00:34:30;4.40;;;2.03;;
23782;SDS011;12071;50.850;4.446;2022-11-18T00:36:55;7.20;;;1.90;;
23782;SDS011;12071;50.850;4.446;2022-11-18T00:39:21;7.95;;;2.13;;
23782;SDS011;12071;50.850;4.446;2022-11-18T00:41:47;4.50;;;1.63;;
23782;SDS011;12071;50.850;4.446;2022-11-18T00:44:31;6.78;;;1.90;;
23782;SDS011;12071;50.850;4.446;2022-11-18T00:46:57;6.05;;;1.92;;
23782;SDS011;12071;50.850;4.446;2022-11-18T00:49:23;4.55;;;1.88;;
23782;SDS011;12071;50.850;4.446;2022-11-18T00:51:48;7.72;;;1.90;;
23782;SDS011;12071;50.850;4.446;2022-11-18T00:54:14;6.25;;;2.05;;
23782;SDS011;12071;50.850;4.446;2022-11-18T00:56:40;5.25;;;1.65;;
23782;SDS011;12071;50.850;4.446;2022-11-18T00:59:06;4.85;;;1.50;;
23782;SDS011;12071;50.850;4.446;2022-11-18T01:01:31;5.13;;;1.67;;
23782;SDS011;12071;50.850;4.446;2022-11-18T01:03:57;4.90;;;1.95;;
23782;SDS011;12071;50.850;4.446;2022-11-18T01:06:22;6.13;;;1.60;;
23782;SDS011;12071;50.850;4.446;2022-11-18T01:08:48;4.80;;;1.75;;
23782;SDS011;12071;50.850;4.446;2022-11-18T01:11:14;6.70;;;1.70;;
23782;SDS011;12071;50.850;4.446;2022-11-18T01:13:58;4.40;;;1.70;;
23782;SDS011;12071;50.850;4.446;2022-11-18T01:16:25;4.35;;;1.75;;
23782;SDS011;12071;50.850;4.446;2022-11-18T01:18:52;4.10;;;1.70;;
23782;SDS011;12071;50.850;4.446;2022-11-18T01:21:18;4.45;;;1.38;;
23782;SDS011;12071;50.850;4.446;2022-11-18T01:23:44;4.15;;;1.58;;
23782;SDS011;12071;50.850;4.446;2022-11-18T01:26:11;4.45;;;1.40;;
23782;SDS011;12071;50.850;4.446;2022-11-18T01:28:37;5.32;;;1.48;;
23782;SDS011;12071;50.850;4.446;2022-11-18T01:31:08;6.53;;;1.75;;
23782;SDS011;12071;50.850;4.446;2022-11-18T01:33:38;5.35;;;1.95;;
23782;SDS011;12071;50.850;4.446;2022-11-18T01:36:13;8.32;;;2.00;;
23782;SDS011;12071;50.850;4.446;2022-11-18T01:38:39;6.05;;;1.58;;
23782;SDS011;12071;50.850;4.446;2022-11-18T01:41:04;6.25;;;1.77;;
23782;SDS011;12071;50.850;4.446;2022-11-18T01:46:17;3.08;;;1.60;;
23782;SDS011;12071;50.850;4.446;2022-11-18T01:48:44;4.78;;;1.60;;
23782;SDS011;12071;50.850;4.446;2022-11-18T01:51:13;5.45;;;1.52;;
23782;SDS011;12071;50.850;4.446;2022-11-18T01:53:44;8.15;;;1.83;;
23782;SDS011;12071;50.850;4.446;2022-11-18T01:56:19;6.30;;;1.65;;
23782;SDS011;12071;50.850;4.446;2022-11-18T01:58:56;5.75;;;1.90;;
23782;SDS011;12071;50.850;4.446;2022-11-18T02:01:27;6.18;;;1.77;;
23782;SDS011;12071;50.850;4.446;2022-11-18T02:03:53;4.13;;;1.58;;
23782;SDS011;12071;50.850;4.446;2022-11-18T02:06:19;3.85;;;1.73;;
23782;SDS011;12071;50.850;4.446;2022-11-18T02:08:45;7.47;;;1.42;;
23782;SDS011;12071;50.850;4.446;2022-11-18T02:11:13;5.57;;;1.83;;
23782;SDS011;12071;50.850;4.446;2022-11-18T02:13:58;5.10;;;1.90;;
23782;SDS011;12071;50.850;4.446;2022-11-18T02:16:49;5.87;;;1.87;;
23782;SDS011;12071;50.850;4.446;2022-11-18T02:21:58;5.70;;;1.70;;
23782;SDS011;12071;50.850;4.446;2022-11-18T02:24:47;3.70;;;1.83;;
23782;SDS011;12071;50.850;4.446;2022-11-18T02:30:42;4.97;;;1.80;;
23782;SDS011;12071;50.850;4.446;2022-11-18T02:33:21;2.97;;;1.40;;
23782;SDS011;12071;50.850;4.446;2022-11-18T02:36:08;6.20;;;1.50;;
23782;SDS011;12071;50.850;4.446;2022-11-18T02:38:45;6.43;;;2.25;;
23782;SDS011;12071;50.850;4.446;2022-11-18T02:41:17;3.63;;;1.60;;
23782;SDS011;12071;50.850;4.446;2022-11-18T02:44:03;2.70;;;1.40;;
23782;SDS011;12071;50.850;4.446;2022-11-18T02:46:34;5.70;;;1.60;;
23782;SDS011;12071;50.850;4.446;2022-11-18T02:49:03;7.78;;;1.80;;
23782;SDS011;12071;50.850;4.446;2022-11-18T02:51:33;5.65;;;1.88;;
23782;SDS011;12071;50.850;4.446;2022-11-18T02:54:02;6.38;;;1.75;;
23782;SDS011;12071;50.850;4.446;2022-11-18T02:56:32;3.60;;;1.70;;
23782;SDS011;12071;50.850;4.446;2022-11-18T02:58:58;5.75;;;2.03;;
23782;SDS011;12071;50.850;4.446;2022-11-18T03:01:25;4.82;;;1.80;;
23782;SDS011;12071;50.850;4.446;2022-11-18T03:03:54;6.90;;;2.05;;
23782;SDS011;12071;50.850;4.446;2022-11-18T03:06:30;2.80;;;1.80;;
23782;SDS011;12071;50.850;4.446;2022-11-18T03:22:36;4.65;;;2.00;;
23782;SDS011;12071;50.850;4.446;2022-11-18T03:25:08;9.18;;;2.33;;
23782;SDS011;12071;50.850;4.446;2022-11-18T03:27:47;3.58;;;2.13;;
23782;SDS011;12071;50.850;4.446;2022-11-18T03:30:19;6.30;;;2.10;;
23782;SDS011;12071;50.850;4.446;2022-11-18T03:32:49;4.43;;;2.50;;
23782;SDS011;12071;50.850;4.446;2022-11-18T03:35:24;8.35;;;2.35;;
23782;SDS011;12071;50.850;4.446;2022-11-18T03:38:12;5.60;;;1.95;;
23782;SDS011;12071;50.850;4.446;2022-11-18T03:40:45;8.20;;;2.70;;
23782;SDS011;12071;50.850;4.446;2022-11-18T03:43:15;5.50;;;2.22;;
23782;SDS011;12071;50.850;4.446;2022-11-18T03:45:46;11.55;;;2.15;;
23782;SDS011;12071;50.850;4.446;2022-11-18T03:48:16;8.90;;;2.27;;
23782;SDS011;12071;50.850;4.446;2022-11-18T03:50:47;7.13;;;2.13;;
23782;SDS011;12071;50.850;4.446;2022-11-18T03:53:17;6.07;;;2.40;;
23782;SDS011;12071;50.850;4.446;2022-11-18T03:55:46;8.02;;;2.30;;
23782;SDS011;12071;50.850;4.446;2022-11-18T03:58:23;4.40;;;2.05;;
23782;SDS011;12071;50.850;4.446;2022-11-18T04:01:07;5.80;;;2.05;;
23782;SDS011;12071;50.850;4.446;2022-11-18T04:03:39;8.00;;;2.45;;
23782;SDS011;12071;50.850;4.446;2022-11-18T04:06:08;9.27;;;2.72;;
23782;SDS011;12071;50.850;4.446;2022-11-18T04:08:39;3.88;;;2.28;;
23782;SDS011;12071;50.850;4.446;2022-11-18T04:13:56;7.20;;;2.67;;
23782;SDS011;12071;50.850;4.446;2022-11-18T04:16:23;6.13;;;2.47;;
23782;SDS011;12071;50.850;4.446;2022-11-18T04:18:49;7.57;;;2.30;;
23782;SDS011;12071;50.850;4.446;2022-11-18T04:21:14;10.60;;;2.92;;
23782;SDS011;12071;50.850;4.446;2022-11-18T04:23:40;6.15;;;2.63;;
23782;SDS011;12071;50.850;4.446;2022-11-18T04:26:05;7.13;;;2.55;;
23782;SDS011;12071;50.850;4.446;2022-11-18T04:28:31;6.53;;;2.22;;
23782;SDS011;12071;50.850;4.446;2022-11-18T04:30:57;6.95;;;2.50;;
23782;SDS011;12071;50.850;4.446;2022-11-18T04:33:22;6.78;;;2.42;;
23782;SDS011;12071;50.850;4.446;2022-11-18T04:35:48;5.13;;;2.70;;
23782;SDS011;12071;50.850;4.446;2022-11-18T04:38:13;5.78;;;2.58;;
23782;SDS011;12071;50.850;4.446;2022-11-18T04:40:39;8.40;;;2.70;;
23782;SDS011;12071;50.850;4.446;2022-11-18T04:43:04;4.88;;;2.47;;
23782;SDS011;12071;50.850;4.446;2022-11-18T04:45:30;7.97;;;2.65;;
23782;SDS011;12071;50.850;4.446;2022-11-18T04:47:55;6.43;;;2.55;;
23782;SDS011;12071;50.850;4.446;2022-11-18T04:50:21;9.77;;;2.67;;
23782;SDS011;12071;50.850;4.446;2022-11-18T04:52:46;3.88;;;2.33;;
23782;SDS011;12071;50.850;4.446;2022-11-18T04:55:12;6.63;;;2.83;;
23782;SDS011;12071;50.850;4.446;2022-11-18T04:57:37;10.02;;;3.10;;
23782;SDS011;12071;50.850;4.446;2022-11-18T05:00:03;8.82;;;2.58;;
23782;SDS011;12071;50.850;4.446;2022-11-18T05:02:29;7.43;;;3.10;;
23782;SDS011;12071;50.850;4.446;2022-11-18T05:04:55;6.20;;;2.45;;
23782;SDS011;12071;50.850;4.446;2022-11-18T05:07:20;8.70;;;2.83;;
23782;SDS011;12071;50.850;4.446;2022-11-18T05:09:46;11.93;;;3.55;;
23782;SDS011;12071;50.850;4.446;2022-11-18T05:12:12;7.75;;;2.60;;
23782;SDS011;12071;50.850;4.446;2022-11-18T05:14:57;5.00;;;2.40;;
23782;SDS011;12071;50.850;4.446;2022-11-18T05:17:22;6.95;;;2.85;;
23782;SDS011;12071;50.850;4.446;2022-11-18T05:19:48;5.75;;;2.72;;
23782;SDS011;12071;50.850;4.446;2022-11-18T05:22:14;7.82;;;2.80;;
23782;SDS011;12071;50.850;4.446;2022-11-18T05:24:40;9.70;;;2.92;;
23782;SDS011;12071;50.850;4.446;2022-11-18T05:27:05;8.30;;;2.60;;
23782;SDS011;12071;50.850;4.446;2022-11-18T05:29:31;6.10;;;2.33;;
23782;SDS011;12071;50.850;4.446;2022-11-18T05:31:57;7.20;;;2.42;;
23782;SDS011;12071;50.850;4.446;2022-11-18T05:34:23;8.45;;;2.97;;
23782;SDS011;12071;50.850;4.446;2022-11-18T05:36:48;9.00;;;2.88;;
23782;SDS011;12071;50.850;4.446;2022-11-18T05:39:14;7.53;;;3.25;;
23782;SDS011;12071;50.850;4.446;2022-11-18T05:41:40;7.88;;;2.53;;
23782;SDS011;12071;50.850;4.446;2022-11-18T05:44:24;9.82;;;3.30;;
23782;SDS011;12071;50.850;4.446;2022-11-18T05:46:50;6.93;;;2.80;;
23782;SDS011;12071;50.850;4.446;2022-11-18T05:49:15;8.43;;;3.20;;
23782;SDS011;12071;50.850;4.446;2022-11-18T05:51:41;8.88;;;3.10;;
23782;SDS011;12071;50.850;4.446;2022-11-18T05:54:07;9.07;;;3.53;;
23782;SDS011;12071;50.850;4.446;2022-11-18T05:56:34;8.13;;;2.58;;
23782;SDS011;12071;50.850;4.446;2022-11-18T05:59:02;5.72;;;2.58;;
23782;SDS011;12071;50.850;4.446;2022-11-18T06:01:32;9.05;;;3.05;;
23782;SDS011;12071;50.850;4.446;2022-11-18T06:03:59;10.50;;;3.17;;
23782;SDS011;12071;50.850;4.446;2022-11-18T06:06:28;14.90;;;3.55;;
23782;SDS011;12071;50.850;4.446;2022-11-18T06:08:59;9.45;;;2.83;;
23782;SDS011;12071;50.850;4.446;2022-11-18T06:11:27;9.27;;;3.00;;
23782;SDS011;12071;50.850;4.446;2022-11-18T06:14:01;9.65;;;2.60;;
23782;SDS011;12071;50.850;4.446;2022-11-18T06:16:29;9.05;;;2.75;;
23782;SDS011;12071;50.850;4.446;2022-11-18T06:18:57;6.72;;;3.60;;
23782;SDS011;12071;50.850;4.446;2022-11-18T06:21:23;12.13;;;3.15;;
23782;SDS011;12071;50.850;4.446;2022-11-18T06:23:49;10.63;;;3.00;;
23782;SDS011;12071;50.850;4.446;2022-11-18T06:26:15;12.25;;;3.40;;
23782;SDS011;12071;50.850;4.446;2022-11-18T06:28:42;10.15;;;3.08;;
23782;SDS011;12071;50.850;4.446;2022-11-18T06:31:09;9.27;;;2.90;;
23782;SDS011;12071;50.850;4.446;2022-11-18T06:33:35;11.05;;;3.63;;
23782;SDS011;12071;50.850;4.446;2022-11-18T06:36:00;11.60;;;3.00;;
23782;SDS011;12071;50.850;4.446;2022-11-18T06:38:26;13.52;;;3.38;;
23782;SDS011;12071;50.850;4.446;2022-11-18T06:40:51;11.57;;;3.05;;
23782;SDS011;12071;50.850;4.446;2022-11-18T06:43:17;11.95;;;3.25;;
23782;SDS011;12071;50.850;4.446;2022-11-18T06:46:02;8.60;;;2.70;;
23782;SDS011;12071;50.850;4.446;2022-11-18T06:48:47;9.32;;;2.97;;
23782;SDS011;12071;50.850;4.446;2022-11-18T06:51:13;10.63;;;2.78;;
23782;SDS011;12071;50.850;4.446;2022-11-18T06:53:38;13.77;;;3.45;;
23782;SDS011;12071;50.850;4.446;2022-11-18T06:56:05;11.50;;;3.35;;
23782;SDS011;12071;50.850;4.446;2022-11-18T06:58:32;11.60;;;3.33;;
23782;SDS011;12071;50.850;4.446;2022-11-18T07:00:59;7.82;;;2.97;;
23782;SDS011;12071;50.850;4.446;2022-11-18T07:03:34;8.82;;;2.88;;
23782;SDS011;12071;50.850;4.446;2022-11-18T07:05:59;13.77;;;2.97;;
23782;SDS011;12071;50.850;4.446;2022-11-18T07:08:25;10.75;;;2.75;;
23782;SDS011;12071;50.850;4.446;2022-11-18T07:10:51;9.02;;;3.00;;
23782;SDS011;12071;50.850;4.446;2022-11-18T07:13:17;7.68;;;2.92;;
23782;SDS011;12071;50.850;4.446;2022-11-18T07:15:42;8.70;;;2.65;;
23782;SDS011;12071;50.850;4.446;2022-11-18T07:18:08;8.27;;;3.25;;
23782;SDS011;12071;50.850;4.446;2022-11-18T07:20:33;12.35;;;3.42;;
23782;SDS011;12071;50.850;4.446;2022-11-18T07:22:59;6.88;;;2.67;;
23782;SDS011;12071;50.850;4.446;2022-11-18T07:25:24;8.27;;;2.90;;
23782;SDS011;12071;50.850;4.446;2022-11-18T07:27:50;9.50;;;2.90;;
23782;SDS011;12071;50.850;4.446;2022-11-18T07:30:15;7.85;;;2.47;;
23782;SDS011;12071;50.850;4.446;2022-11-18T07:32:41;10.85;;;2.90;;
23782;SDS011;12071;50.850;4.446;2022-11-18T07:35:07;8.18;;;2.85;;
23782;SDS011;12071;50.850;4.446;2022-11-18T07:37:33;18.52;;;2.92;;
23782;SDS011;12071;50.850;4.446;2022-11-18T07:39:58;7.30;;;2.15;;
23782;SDS011;12071;50.850;4.446;2022-11-18T07:42:24;9.43;;;2.80;;
23782;SDS011;12071;50.850;4.446;2022-11-18T07:44:50;9.30;;;2.50;;
23782;SDS011;12071;50.850;4.446;2022-11-18T07:47:15;14.82;;;2.55;;
23782;SDS011;12071;50.850;4.446;2022-11-18T07:49:41;6.82;;;2.30;;
23782;SDS011;12071;50.850;4.446;2022-11-18T07:52:06;5.70;;;2.33;;
23782;SDS011;12071;50.850;4.446;2022-11-18T07:54:32;12.10;;;2.13;;
23782;SDS011;12071;50.850;4.446;2022-11-18T07:56:57;6.68;;;2.00;;
23782;SDS011;12071;50.850;4.446;2022-11-18T07:59:23;9.50;;;2.13;;
23782;SDS011;12071;50.850;4.446;2022-11-18T08:01:49;9.18;;;2.20;;
23782;SDS011;12071;50.850;4.446;2022-11-18T08:04:14;6.93;;;2.00;;
23782;SDS011;12071;50.850;4.446;2022-11-18T08:06:41;9.85;;;3.00;;
23782;SDS011;12071;50.850;4.446;2022-11-18T08:09:07;12.73;;;2.80;;
23782;SDS011;12071;50.850;4.446;2022-11-18T08:11:33;12.20;;;2.58;;
23782;SDS011;12071;50.850;4.446;2022-11-18T08:13:59;7.55;;;2.40;;
23782;SDS011;12071;50.850;4.446;2022-11-18T08:16:25;10.05;;;2.60;;
23782;SDS011;12071;50.850;4.446;2022-11-18T08:18:51;7.32;;;2.67;;
23782;SDS011;12071;50.850;4.446;2022-11-18T08:21:17;6.57;;;2.17;;
23782;SDS011;12071;50.850;4.446;2022-11-18T08:23:54;8.25;;;2.10;;
23782;SDS011;12071;50.850;4.446;2022-11-18T08:26:20;6.30;;;1.98;;
23782;SDS011;12071;50.850;4.446;2022-11-18T08:28:46;9.32;;;2.30;;
23782;SDS011;12071;50.850;4.446;2022-11-18T08:31:16;7.30;;;2.28;;
23782;SDS011;12071;50.850;4.446;2022-11-18T08:33:43;12.35;;;2.20;;
23782;SDS011;12071;50.850;4.446;2022-11-18T08:36:11;8.45;;;2.03;;
23782;SDS011;12071;50.850;4.446;2022-11-18T08:38:40;8.07;;;2.42;;
23782;SDS011;12071;50.850;4.446;2022-11-18T08:41:06;5.85;;;2.17;;
23782;SDS011;12071;50.850;4.446;2022-11-18T08:43:34;7.45;;;2.28;;
23782;SDS011;12071;50.850;4.446;2022-11-18T08:46:00;6.93;;;2.40;;
23782;SDS011;12071;50.850;4.446;2022-11-18T08:48:26;10.35;;;3.13;;
23782;SDS011;12071;50.850;4.446;2022-11-18T08:50:51;9.38;;;2.65;;
23782;SDS011;12071;50.850;4.446;2022-11-18T08:53:17;7.28;;;2.72;;
23782;SDS011;12071;50.850;4.446;2022-11-18T08:55:42;8.48;;;2.92;;
23782;SDS011;12071;50.850;4.446;2022-11-18T08:58:08;12.50;;;2.90;;
23782;SDS011;12071;50.850;4.446;2022-11-18T09:00:34;10.60;;;2.70;;
23782;SDS011;12071;50.850;4.446;2022-11-18T09:02:59;10.15;;;3.05;;
23782;SDS011;12071;50.850;4.446;2022-11-18T09:05:25;9.00;;;2.85;;
23782;SDS011;12071;50.850;4.446;2022-11-18T09:07:50;8.70;;;2.80;;
23782;SDS011;12071;50.850;4.446;2022-11-18T09:10:16;7.93;;;3.25;;
23782;SDS011;12071;50.850;4.446;2022-11-18T09:12:41;10.73;;;2.88;;
23782;SDS011;12071;50.850;4.446;2022-11-18T09:15:07;9.43;;;2.65;;
23782;SDS011;12071;50.850;4.446;2022-11-18T09:17:33;6.13;;;2.33;;
23782;SDS011;12071;50.850;4.446;2022-11-18T09:19:59;5.43;;;2.33;;
23782;SDS011;12071;50.850;4.446;2022-11-18T09:22:24;10.18;;;2.60;;
23782;SDS011;12071;50.850;4.446;2022-11-18T09:24:50;13.80;;;2.42;;
23782;SDS011;12071;50.850;4.446;2022-11-18T09:27:15;6.68;;;2.17;;
23782;SDS011;12071;50.850;4.446;2022-11-18T09:29:41;8.43;;;2.30;;
23782;SDS011;12071;50.850;4.446;2022-11-18T09:32:07;8.45;;;2.55;;
23782;SDS011;12071;50.850;4.446;2022-11-18T09:34:33;8.40;;;2.13;;
23782;SDS011;12071;50.850;4.446;2022-11-18T09:36:59;7.32;;;2.35;;
23782;SDS011;12071;50.850;4.446;2022-11-18T09:39:29;9.82;;;1.90;;
23782;SDS011;12071;50.850;4.446;2022-11-18T09:45:08;6.28;;;2.22;;
23782;SDS011;12071;50.850;4.446;2022-11-18T09:47:40;9.98;;;2.05;;
23782;SDS011;12071;50.850;4.446;2022-11-18T09:50:13;8.70;;;2.10;;
23782;SDS011;12071;50.850;4.446;2022-11-18T09:55:19;10.50;;;1.92;;
23782;SDS011;12071;50.850;4.446;2022-11-18T09:57:54;6.68;;;2.20;;
23782;SDS011;12071;50.850;4.446;2022-11-18T10:00:23;5.65;;;1.75;;
23782;SDS011;12071;50.850;4.446;2022-11-18T10:05:27;8.38;;;2.08;;
23782;SDS011;12071;50.850;4.446;2022-11-18T10:16:22;9.32;;;1.85;;
23782;SDS011;12071;50.850;4.446;2022-11-18T10:19:18;5.00;;;1.60;;
23782;SDS011;12071;50.850;4.446;2022-11-18T10:21:59;7.43;;;2.15;;
23782;SDS011;12071;50.850;4.446;2022-11-18T10:24:29;4.75;;;2.25;;
23782;SDS011;12071;50.850;4.446;2022-11-18T10:26:59;6.95;;;1.88;;
23782;SDS011;12071;50.850;4.446;2022-11-18T10:29:25;8.18;;;1.83;;
23782;SDS011;12071;50.850;4.446;2022-11-18T10:31:53;6.57;;;2.08;;
23782;SDS011;12071;50.850;4.446;2022-11-18T10:34:19;9.93;;;1.98;;
23782;SDS011;12071;50.850;4.446;2022-11-18T10:37:09;6.55;;;1.60;;
23782;SDS011;12071;50.850;4.446;2022-11-18T10:39:50;4.20;;;1.40;;
23782;SDS011;12071;50.850;4.446;2022-11-18T10:42:20;6.20;;;1.58;;
23782;SDS011;12071;50.850;4.446;2022-11-18T10:44:51;6.15;;;1.45;;
23782;SDS011;12071;50.850;4.446;2022-11-18T10:47:29;5.97;;;1.35;;
23782;SDS011;12071;50.850;4.446;2022-11-18T10:50:00;8.70;;;1.55;;
23782;SDS011;12071;50.850;4.446;2022-11-18T10:52:50;6.38;;;1.40;;
23782;SDS011;12071;50.850;4.446;2022-11-18T10:55:19;5.93;;;1.45;;
23782;SDS011;12071;50.850;4.446;2022-11-18T10:57:47;4.75;;;1.58;;
23782;SDS011;12071;50.850;4.446;2022-11-18T11:00:34;5.50;;;1.40;;
23782;SDS011;12071;50.850;4.446;2022-11-18T11:06:11;6.93;;;1.23;;
23782;SDS011;12071;50.850;4.446;2022-11-18T11:08:51;4.85;;;1.20;;
23782;SDS011;12071;50.850;4.446;2022-11-18T11:11:29;3.78;;;1.30;;
23782;SDS011;12071;50.850;4.446;2022-11-18T11:14:19;5.45;;;1.40;;
23782;SDS011;12071;50.850;4.446;2022-11-18T11:19:53;5.00;;;1.23;;
23782;SDS011;12071;50.850;4.446;2022-11-18T11:22:27;7.95;;;1.40;;
23782;SDS011;12071;50.850;4.446;2022-11-18T11:24:53;3.00;;;1.10;;
23782;SDS011;12071;50.850;4.446;2022-11-18T11:27:37;6.40;;;1.25;;
23782;SDS011;12071;50.850;4.446;2022-11-18T11:30:06;3.92;;;1.20;;
23782;SDS011;12071;50.850;4.446;2022-11-18T11:35:19;5.90;;;1.40;;
23782;SDS011;12071;50.850;4.446;2022-11-18T11:37:56;6.53;;;1.30;;
23782;SDS011;12071;50.850;4.446;2022-11-18T11:48:23;9.82;;;1.33;;
23782;SDS011;12071;50.850;4.446;2022-11-18T11:54:29;5.75;;;1.20;;
23782;SDS011;12071;50.850;4.446;2022-11-18T11:59:22;9.00;;;1.20;;
23782;SDS011;12071;50.850;4.446;2022-11-18T12:07:02;10.40;;;2.22;;
23782;SDS011;12071;50.850;4.446;2022-11-18T12:14:30;6.30;;;1.40;;
23782;SDS011;12071;50.850;4.446;2022-11-18T12:17:17;6.30;;;1.33;;
23782;SDS011;12071;50.850;4.446;2022-11-18T12:19:51;5.05;;;1.42;;
23782;SDS011;12071;50.850;4.446;2022-11-18T12:22:16;7.43;;;1.27;;
23782;SDS011;12071;50.850;4.446;2022-11-18T12:24:42;5.45;;;1.27;;
23782;SDS011;12071;50.850;4.446;2022-11-18T12:35:03;7.23;;;1.13;;
23782;SDS011;12071;50.850;4.446;2022-11-18T12:43:08;3.75;;;1.25;;
23782;SDS011;12071;50.850;4.446;2022-11-18T12:46:57;8.75;;;1.38;;
23782;SDS011;12071;50.850;4.446;2022-11-18T12:51:51;7.57;;;1.33;;
23782;SDS011;12071;50.850;4.446;2022-11-18T12:54:37;7.25;;;1.65;;
23782;SDS011;12071;50.850;4.446;2022-11-18T12:57:17;10.38;;;2.72;;
23782;SDS011;12071;50.850;4.446;2022-11-18T12:59:45;6.18;;;2.97;;
23782;SDS011;12071;50.850;4.446;2022-11-18T13:04:43;11.35;;;2.00;;
23782;SDS011;12071;50.850;4.446;2022-11-18T13:07:10;7.43;;;1.83;;
23782;SDS011;12071;50.850;4.446;2022-11-18T13:09:56;5.97;;;1.42;;
23782;SDS011;12071;50.850;4.446;2022-11-18T13:12:24;7.03;;;1.63;;
23782;SDS011;12071;50.850;4.446;2022-11-18T13:14:51;8.88;;;2.08;;
23782;SDS011;12071;50.850;4.446;2022-11-18T13:17:36;9.77;;;2.00;;
23782;SDS011;12071;50.850;4.446;2022-11-18T13:20:22;6.78;;;1.80;;
23782;SDS011;12071;50.850;4.446;2022-11-18T13:22:53;9.65;;;2.22;;
23782;SDS011;12071;50.850;4.446;2022-11-18T13:25:39;8.07;;;2.17;;
23782;SDS011;12071;50.850;4.446;2022-11-18T13:34:39;8.90;;;2.70;;
23782;SDS011;12071;50.850;4.446;2022-11-18T13:37:11;8.23;;;2.28;;
23782;SDS011;12071;50.850;4.446;2022-11-18T13:39:42;8.30;;;2.20;;
23782;SDS011;12071;50.850;4.446;2022-11-18T13:42:16;6.13;;;1.50;;
23782;SDS011;12071;50.850;4.446;2022-11-18T13:44:44;6.50;;;1.60;;
23782;SDS011;12071;50.850;4.446;2022-11-18T13:55:27;9.23;;;2.00;;
23782;SDS011;12071;50.850;4.446;2022-11-18T14:00:27;6.30;;;2.13;;
23782;SDS011;12071;50.850;4.446;2022-11-18T14:05:51;8.82;;;1.63;;
23782;SDS011;12071;50.850;4.446;2022-11-18T14:08:29;7.68;;;2.00;;
23782;SDS011;12071;50.850;4.446;2022-11-18T14:10:59;6.57;;;1.42;;
23782;SDS011;12071;50.850;4.446;2022-11-18T14:13:30;6.70;;;1.50;;
23782;SDS011;12071;50.850;4.446;2022-11-18T14:18:46;8.93;;;1.92;;
23782;SDS011;12071;50.850;4.446;2022-11-18T14:21:13;6.53;;;2.10;;
23782;SDS011;12071;50.850;4.446;2022-11-18T14:23:50;10.15;;;2.25;;
23782;SDS011;12071;50.850;4.446;2022-11-18T14:26:16;6.57;;;1.80;;
23782;SDS011;12071;50.850;4.446;2022-11-18T14:28:59;8.98;;;1.80;;
23782;SDS011;12071;50.850;4.446;2022-11-18T14:31:27;8.20;;;2.50;;
23782;SDS011;12071;50.850;4.446;2022-11-18T14:34:29;5.90;;;1.92;;
23782;SDS011;12071;50.850;4.446;2022-11-18T14:36:50;6.90;;;1.48;;
23782;SDS011;12071;50.850;4.446;2022-11-18T14:39:29;5.10;;;1.80;;
23782;SDS011;12071;50.850;4.446;2022-11-18T14:41:56;6.20;;;1.83;;
23782;SDS011;12071;50.850;4.446;2022-11-18T14:44:23;7.10;;;1.90;;
23782;SDS011;12071;50.850;4.446;2022-11-18T14:46:52;6.18;;;1.80;;
23782;SDS011;12071;50.850;4.446;2022-11-18T14:49:22;7.40;;;2.05;;
23782;SDS011;12071;50.850;4.446;2022-11-18T14:51:49;8.98;;;2.00;;
23782;SDS011;12071;50.850;4.446;2022-11-18T14:54:16;7.55;;;2.22;;
23782;SDS011;12071;50.850;4.446;2022-11-18T14:56:43;7.85;;;2.20;;
23782;SDS011;12071;50.850;4.446;2022-11-18T14:59:13;7.70;;;2.42;;
23782;SDS011;12071;50.850;4.446;2022-11-18T15:01:40;8.10;;;2.42;;
23782;SDS011;12071;50.850;4.446;2022-11-18T15:04:07;9.75;;;2.20;;
23782;SDS011;12071;50.850;4.446;2022-11-18T15:06:32;10.38;;;2.05;;
23782;SDS011;12071;50.850;4.446;2022-11-18T15:08:58;8.07;;;2.15;;
23782;SDS011;12071;50.850;4.446;2022-11-18T15:11:24;7.38;;;2.33;;
23782;SDS011;12071;50.850;4.446;2022-11-18T15:13:49;8.35;;;2.15;;
23782;SDS011;12071;50.850;4.446;2022-11-18T15:16:22;7.30;;;2.42;;
23782;SDS011;12071;50.850;4.446;2022-11-18T15:18:50;8.63;;;2.60;;
23782;SDS011;12071;50.850;4.446;2022-11-18T15:21:21;6.47;;;2.22;;
23782;SDS011;12071;50.850;4.446;2022-11-18T15:23:47;7.10;;;2.30;;
23782;SDS011;12071;50.850;4.446;2022-11-18T15:26:20;8.80;;;2.58;;
23782;SDS011;12071;50.850;4.446;2022-11-18T15:28:52;10.45;;;2.53;;
23782;SDS011;12071;50.850;4.446;2022-11-18T15:31:20;6.60;;;2.13;;
23782;SDS011;12071;50.850;4.446;2022-11-18T15:33:46;12.02;;;2.30;;
23782;SDS011;12071;50.850;4.446;2022-11-18T15:36:16;8.90;;;2.40;;
23782;SDS011;12071;50.850;4.446;2022-11-18T15:38:43;9.88;;;2.50;;
23782;SDS011;12071;50.850;4.446;2022-11-18T15:41:13;7.68;;;2.40;;
23782;SDS011;12071;50.850;4.446;2022-11-18T15:43:45;8.35;;;2.20;;
23782;SDS011;12071;50.850;4.446;2022-11-18T15:46:11;8.20;;;2.38;;
23782;SDS011;12071;50.850;4.446;2022-11-18T15:48:36;9.93;;;2.15;;
23782;SDS011;12071;50.850;4.446;2022-11-18T15:51:02;11.00;;;2.60;;
23782;SDS011;12071;50.850;4.446;2022-11-18T15:53:27;8.02;;;2.22;;
23782;SDS011;12071;50.850;4.446;2022-11-18T15:56:12;5.65;;;1.80;;
23782;SDS011;12071;50.850;4.446;2022-11-18T15:58:41;11.88;;;2.25;;
23782;SDS011;12071;50.850;4.446;2022-11-18T16:01:06;6.65;;;2.22;;
23782;SDS011;12071;50.850;4.446;2022-11-18T16:03:32;8.10;;;2.38;;
23782;SDS011;12071;50.850;4.446;2022-11-18T16:05:58;6.93;;;2.10;;
23782;SDS011;12071;50.850;4.446;2022-11-18T16:08:24;6.20;;;2.10;;
23782;SDS011;12071;50.850;4.446;2022-11-18T16:10:56;6.28;;;2.05;;
23782;SDS011;12071;50.850;4.446;2022-11-18T16:13:41;9.23;;;2.10;;
23782;SDS011;12071;50.850;4.446;2022-11-18T16:16:07;8.77;;;1.80;;
23782;SDS011;12071;50.850;4.446;2022-11-18T16:18:41;9.85;;;2.53;;
23782;SDS011;12071;50.850;4.446;2022-11-18T16:21:07;8.68;;;2.63;;
23782;SDS011;12071;50.850;4.446;2022-11-18T16:23:33;9.68;;;2.30;;
23782;SDS011;12071;50.850;4.446;2022-11-18T16:25:59;8.50;;;2.10;;
23782;SDS011;12071;50.850;4.446;2022-11-18T16:28:25;11.10;;;2.80;;
23782;SDS011;12071;50.850;4.446;2022-11-18T16:30:51;6.15;;;1.95;;
23782;SDS011;12071;50.850;4.446;2022-11-18T16:33:36;7.82;;;2.17;;
23782;SDS011;12071;50.850;4.446;2022-11-18T16:36:01;7.80;;;2.53;;
23782;SDS011;12071;50.850;4.446;2022-11-18T16:38:27;8.43;;;2.80;;
23782;SDS011;12071;50.850;4.446;2022-11-18T16:40:55;8.20;;;3.13;;
23782;SDS011;12071;50.850;4.446;2022-11-18T16:43:22;8.10;;;2.35;;
23782;SDS011;12071;50.850;4.446;2022-11-18T16:45:49;8.90;;;2.42;;
23782;SDS011;12071;50.850;4.446;2022-11-18T16:48:19;11.48;;;2.70;;
23782;SDS011;12071;50.850;4.446;2022-11-18T16:50:56;8.60;;;2.60;;
23782;SDS011;12071;50.850;4.446;2022-11-18T16:53:42;8.52;;;2.90;;
23782;SDS011;12071;50.850;4.446;2022-11-18T16:56:07;7.20;;;3.00;;